Time;durP1;ratioP1;P1;durP2;ratioP2;P2;SDS_P1;SDS_P2;PMS_P1;PMS_P2;Temp;Humidity;BMP_temperature;BMP_pressure;BME280_temperature;BME280_humidity;BME280_pressure;Samples;Min_cycle;Max_cycle;Signal;HPM_P1;HPM_P2
2021/11/23 00:01:42;;;;;;;1.15;1.15;;;10.70;99.90;;;;;;4158793;28;20069;-52
2021/11/23 00:03:49;;;;;;;1.05;1.05;;;10.80;99.90;;;;;;4159813;28;20034;-52
2021/11/23 00:05:51;;;;;;;1.10;1.10;;;10.80;99.90;;;;;;4161053;28;20115;-52
2021/11/23 00:07:53;;;;;;;0.95;0.95;;;10.80;99.90;;;;;;4160245;28;20061;-50
2021/11/23 00:09:55;;;;;;;1.08;1.08;;;10.70;99.90;;;;;;4155248;28;20050;-51
2021/11/23 00:11:57;;;;;;;1.00;1.00;;;10.70;99.90;;;;;;4157340;28;20041;-52
2021/11/23 00:14:00;;;;;;;1.10;1.10;;;10.70;99.90;;;;;;4161349;28;20035;-52
2021/11/23 00:16:02;;;;;;;1.00;1.00;;;10.70;99.90;;;;;;4156977;28;20120;-52
2021/11/23 00:18:11;;;;;;;1.10;1.10;;;10.70;99.90;;;;;;4161561;28;20532;-52
2021/11/23 00:20:13;;;;;;;1.00;1.00;;;10.60;99.90;;;;;;4157491;28;20057;-51
2021/11/23 00:22:15;;;;;;;0.90;0.90;;;10.60;99.90;;;;;;4159291;28;20061;-53
2021/11/23 00:24:17;;;;;;;1.00;1.00;;;10.60;99.90;;;;;;4152777;28;20492;-51
2021/11/23 00:26:19;;;;;;;1.00;1.00;;;10.60;99.90;;;;;;4150885;28;20041;-51
2021/11/23 00:28:22;;;;;;;1.00;1.00;;;10.60;99.90;;;;;;4157308;28;20121;-51
2021/11/23 00:30:24;;;;;;;0.98;0.98;;;10.60;99.90;;;;;;4161588;28;20076;-52
2021/11/23 00:32:26;;;;;;;;;;;10.60;99.90;;;;;;4157394;28;20061;-52
2021/11/23 00:34:28;;;;;;;1.73;1.00;;;10.60;99.90;;;;;;4161475;28;19921;-52
2021/11/23 00:36:31;;;;;;;0.82;0.82;;;10.70;99.90;;;;;;4157168;28;20069;-52
2021/11/23 00:38:34;;;;;;;0.90;0.90;;;10.60;99.90;;;;;;4155935;28;20046;-52
2021/11/23 00:40:36;;;;;;;1.13;1.00;;;10.60;99.90;;;;;;4154393;28;20123;-52
2021/11/23 00:42:38;;;;;;;0.90;0.90;;;10.60;99.90;;;;;;4156533;28;20140;-52
2021/11/23 00:44:40;;;;;;;0.90;0.90;;;10.60;99.90;;;;;;4159077;28;20042;-53
2021/11/23 00:46:42;;;;;;;1.08;0.95;;;10.60;99.90;;;;;;4161813;28;20076;-52
2021/11/23 00:48:44;;;;;;;1.00;1.00;;;10.60;99.90;;;;;;4158730;28;20049;-52
2021/11/23 00:50:49;;;;;;;0.90;0.90;;;10.60;99.90;;;;;;4162346;28;20052;-51
2021/11/23 00:52:52;;;;;;;2.15;1.38;;;10.60;99.90;;;;;;4158686;28;20034;-52
2021/11/23 00:54:54;;;;;;;1.08;1.08;;;10.60;99.90;;;;;;4153858;28;20136;-52
2021/11/23 00:56:56;;;;;;;1.65;1.00;;;10.60;99.90;;;;;;4158970;28;20120;-52
2021/11/23 00:58:58;;;;;;;1.00;1.00;;;10.60;99.90;;;;;;4161426;28;20132;-52
2021/11/23 01:01:01;;;;;;;1.33;1.33;;;10.50;99.90;;;;;;4161254;28;20069;-52
2021/11/23 01:03:04;;;;;;;0.90;0.90;;;10.50;99.90;;;;;;4160470;28;20124;-52
2021/11/23 01:05:07;;;;;;;1.10;1.10;;;10.50;99.90;;;;;;4154149;28;20065;-53
2021/11/23 01:07:09;;;;;;;0.80;0.80;;;10.50;99.90;;;;;;4156288;28;20130;-53
2021/11/23 01:09:11;;;;;;;0.95;0.90;;;10.50;99.90;;;;;;4152547;28;20073;-51
2021/11/23 01:11:16;;;;;;;0.90;0.90;;;10.50;99.90;;;;;;4153599;28;20482;-52
2021/11/23 01:13:18;;;;;;;1.17;1.10;;;10.40;99.90;;;;;;4158587;28;20041;-51
2021/11/23 01:15:21;;;;;;;1.10;1.10;;;10.50;99.90;;;;;;4158562;28;20045;-51
2021/11/23 01:17:23;;;;;;;1.63;1.20;;;10.40;99.90;;;;;;4159009;28;20128;-49
2021/11/23 01:19:26;;;;;;;1.10;1.10;;;10.40;99.90;;;;;;4158906;28;20041;-49
2021/11/23 01:21:28;;;;;;;1.00;1.00;;;10.40;99.90;;;;;;4155320;28;20124;-51
2021/11/23 01:23:31;;;;;;;1.13;1.13;;;10.40;99.90;;;;;;4159366;28;20037;-50
2021/11/23 01:25:34;;;;;;;1.10;1.10;;;10.40;99.90;;;;;;4157798;28;20423;-50
2021/11/23 01:27:36;;;;;;;1.10;1.10;;;10.40;99.90;;;;;;4161216;28;20071;-50
2021/11/23 01:29:38;;;;;;;1.10;1.10;;;10.40;99.90;;;;;;4163389;28;20048;-50
2021/11/23 01:31:40;;;;;;;1.20;1.20;;;10.40;99.90;;;;;;4162203;28;20025;-50
2021/11/23 01:33:42;;;;;;;1.48;1.20;;;10.40;99.90;;;;;;4162912;28;20038;-51
2021/11/23 01:35:45;;;;;;;1.27;1.27;;;10.40;99.90;;;;;;4163075;28;20525;-53
2021/11/23 01:37:47;;;;;;;1.27;1.27;;;10.40;99.90;;;;;;4163371;28;20037;-52
2021/11/23 01:39:49;;;;;;;;;;;10.40;99.90;;;;;;4160300;28;20045;-51
2021/11/23 01:41:51;;;;;;;1.20;1.20;;;10.40;99.90;;;;;;4163917;28;19961;-51
2021/11/23 01:43:53;;;;;;;1.73;1.42;;;10.40;99.90;;;;;;4161970;28;20537;-51
2021/11/23 01:45:55;;;;;;;1.17;1.17;;;10.40;99.90;;;;;;4164768;28;20116;-52
2021/11/23 01:47:57;;;;;;;1.20;1.20;;;10.40;99.90;;;;;;4161447;28;20418;-52
2021/11/23 01:49:59;;;;;;;1.23;1.23;;;10.40;99.90;;;;;;4156706;28;20437;-50
2021/11/23 01:52:02;;;;;;;1.55;1.45;;;10.40;99.90;;;;;;4160268;28;20121;-51
2021/11/23 01:54:05;;;;;;;3.45;1.30;;;10.30;99.90;;;;;;4153364;28;20072;-52
2021/11/23 01:56:08;;;;;;;1.20;1.20;;;10.30;99.90;;;;;;4159651;28;20700;-50
2021/11/23 01:58:15;;;;;;;1.60;1.50;;;10.30;99.90;;;;;;4147494;28;20045;-52
2021/11/23 02:00:18;;;;;;;5.35;1.65;;;10.30;99.90;;;;;;4161692;28;20096;-49
2021/11/23 02:02:20;;;;;;;1.23;1.20;;;10.30;99.90;;;;;;4150917;28;20078;-52
2021/11/23 02:04:22;;;;;;;3.75;1.23;;;10.30;99.90;;;;;;4159290;28;20493;-51
2021/11/23 02:06:24;;;;;;;1.45;1.45;;;10.30;99.90;;;;;;4162997;28;20420;-51
2021/11/23 02:08:26;;;;;;;1.45;1.30;;;10.30;99.90;;;;;;4159533;28;20540;-50
2021/11/23 02:10:28;;;;;;;1.40;1.40;;;10.30;99.90;;;;;;4162119;28;20136;-52
2021/11/23 02:12:31;;;;;;;1.10;1.10;;;10.30;99.90;;;;;;4159183;28;20060;-52
2021/11/23 02:14:33;;;;;;;1.23;1.23;;;10.30;99.90;;;;;;4163501;28;20117;-52
2021/11/23 02:16:35;;;;;;;1.33;1.30;;;10.30;99.90;;;;;;4160654;28;20034;-52
2021/11/23 02:18:37;;;;;;;3.30;1.35;;;10.30;99.90;;;;;;4162586;28;20473;-52
2021/11/23 02:20:40;;;;;;;1.30;1.30;;;10.30;99.90;;;;;;4159589;28;20046;-51
2021/11/23 02:22:43;;;;;;;1.48;1.40;;;10.30;99.90;;;;;;4163794;28;20124;-52
2021/11/23 02:24:45;;;;;;;;;;;10.30;99.90;;;;;;4156555;28;20068;-51
2021/11/23 02:26:47;;;;;;;1.45;1.45;;;10.30;99.90;;;;;;4150014;28;20012;-52
2021/11/23 02:28:49;;;;;;;2.08;1.30;;;10.30;99.90;;;;;;4156793;28;20033;-51
2021/11/23 02:30:54;;;;;;;1.38;1.30;;;10.20;99.90;;;;;;4163692;28;20489;-51
2021/11/23 02:32:56;;;;;;;1.55;1.30;;;10.20;99.90;;;;;;4160338;28;20034;-50
2021/11/23 02:34:58;;;;;;;1.75;1.65;;;10.20;99.90;;;;;;4163723;28;20516;-51
2021/11/23 02:37:00;;;;;;;1.27;1.27;;;10.20;99.90;;;;;;4159367;28;20503;-48
2021/11/23 02:39:04;;;;;;;1.70;1.60;;;10.20;99.90;;;;;;4158836;28;20121;-52
2021/11/23 02:41:08;;;;;;;2.15;1.50;;;10.20;99.90;;;;;;4157691;28;20041;-50
2021/11/23 02:43:10;;;;;;;1.40;1.40;;;10.20;99.90;;;;;;4159919;28;20049;-51
2021/11/23 02:45:15;;;;;;;1.52;1.52;;;10.10;99.90;;;;;;4158242;28;20429;-52
2021/11/23 02:47:17;;;;;;;1.45;1.40;;;10.10;99.90;;;;;;4161775;28;20440;-52
2021/11/23 02:49:21;;;;;;;1.98;1.63;;;10.10;99.90;;;;;;4161372;28;20064;-51
2021/11/23 02:51:23;;;;;;;1.30;1.30;;;10.10;99.90;;;;;;4160615;28;20041;-52
2021/11/23 02:53:25;;;;;;;1.50;1.50;;;10.10;99.90;;;;;;4159922;28;20519;-52
2021/11/23 02:55:32;;;;;;;2.13;2.03;;;10.10;99.90;;;;;;4161324;28;20068;-51
2021/11/23 02:57:35;;;;;;;1.90;1.80;;;10.10;99.90;;;;;;4157880;28;20064;-51
2021/11/23 02:59:37;;;;;;;2.25;2.03;;;10.10;99.90;;;;;;4177490;28;20049;-53
2021/11/23 03:01:39;;;;;;;2.13;2.13;;;10.00;99.90;;;;;;4160658;28;20544;-50
2021/11/23 03:03:41;;;;;;;2.00;1.90;;;10.00;99.90;;;;;;4158877;28;20136;-52
2021/11/23 03:05:43;;;;;;;2.47;2.42;;;10.00;99.90;;;;;;4159978;28;20060;-52
2021/11/23 03:07:47;;;;;;;2.15;2.05;;;10.00;99.90;;;;;;4163172;28;20120;-51
2021/11/23 03:09:49;;;;;;;3.13;3.03;;;10.00;99.90;;;;;;4158215;28;20045;-50
2021/11/23 03:11:51;;;;;;;3.63;3.33;;;10.00;99.90;;;;;;4160234;28;20041;-51
2021/11/23 03:13:53;;;;;;;3.88;2.47;;;9.90;99.90;;;;;;4161001;28;20437;-48
2021/11/23 03:15:55;;;;;;;3.45;3.25;;;9.90;99.90;;;;;;4161775;28;20087;-51
2021/11/23 03:17:58;;;;;;;3.45;2.80;;;9.90;99.90;;;;;;4151054;28;20120;-50
2021/11/23 03:20:00;;;;;;;3.13;2.90;;;9.90;99.90;;;;;;4167689;28;20079;-50
2021/11/23 03:22:03;;;;;;;3.28;3.03;;;9.90;99.90;;;;;;4171935;28;20516;-51
2021/11/23 03:24:06;;;;;;;3.00;2.90;;;9.80;99.90;;;;;;4161214;28;20041;-51
2021/11/23 03:26:08;;;;;;;3.40;3.00;;;9.80;99.90;;;;;;4156739;28;20041;-51
2021/11/23 03:28:11;;;;;;;3.83;3.72;;;9.80;99.90;;;;;;4160003;28;20073;-52
2021/11/23 03:30:16;;;;;;;2.78;2.67;;;9.80;99.90;;;;;;4151052;28;20129;-50
2021/11/23 03:32:18;;;;;;;3.55;3.25;;;9.80;99.90;;;;;;4159917;28;20443;-50
2021/11/23 03:34:21;;;;;;;2.80;2.65;;;9.80;99.90;;;;;;4162515;28;20072;-51
2021/11/23 03:36:23;;;;;;;2.70;2.60;;;9.80;99.90;;;;;;4159345;28;20034;-53
2021/11/23 03:38:25;;;;;;;3.70;3.28;;;9.80;99.90;;;;;;4162586;28;20121;-52
2021/11/23 03:40:29;;;;;;;2.95;2.85;;;9.80;99.90;;;;;;4160293;28;20128;-52
2021/11/23 03:42:31;;;;;;;3.13;2.92;;;9.80;99.90;;;;;;4159735;28;20136;-52
2021/11/23 03:44:35;;;;;;;2.78;2.58;;;9.80;99.90;;;;;;4158854;28;20072;-52
2021/11/23 03:46:37;;;;;;;3.60;3.00;;;9.80;99.90;;;;;;4153383;28;20081;-50
2021/11/23 03:48:39;;;;;;;;;;;9.80;99.90;;;;;;4158977;28;20394;-53
2021/11/23 03:50:41;;;;;;;3.50;3.22;;;9.80;99.90;;;;;;4158443;28;20023;-53
2021/11/23 03:52:45;;;;;;;3.63;2.83;;;9.80;99.90;;;;;;4161279;28;20037;-50
2021/11/23 03:54:47;;;;;;;3.63;3.30;;;9.80;99.90;;;;;;4155711;28;20132;-48
2021/11/23 03:56:50;;;;;;;3.47;3.22;;;9.80;99.90;;;;;;4159340;28;20037;-50
2021/11/23 03:58:52;;;;;;;;;;;9.80;99.90;;;;;;4159709;28;20065;-50
2021/11/23 04:00:53;;;;;;;7.50;3.97;;;9.80;99.90;;;;;;4156112;28;19929;-51
2021/11/23 04:02:56;;;;;;;2.80;2.40;;;9.80;99.90;;;;;;4149170;28;20757;-49
2021/11/23 04:04:58;;;;;;;;;;;9.70;99.90;;;;;;4160022;28;20049;-49
2021/11/23 04:07:00;;;;;;;3.28;3.13;;;9.70;99.90;;;;;;4171991;28;19968;-51
2021/11/23 04:09:03;;;;;;;3.03;2.53;;;9.70;99.90;;;;;;4158176;28;20061;-50
2021/11/23 04:11:05;;;;;;;3.00;2.85;;;9.70;99.90;;;;;;4153435;28;20509;-50
2021/11/23 04:13:07;;;;;;;2.85;2.72;;;9.70;99.90;;;;;;4158240;28;20127;-51
2021/11/23 04:15:09;;;;;;;4.43;3.47;;;9.70;99.90;;;;;;4162615;28;20465;-52
2021/11/23 04:17:11;;;;;;;3.30;2.95;;;9.70;99.90;;;;;;4157984;28;20064;-50
2021/11/23 04:19:13;;;;;;;3.42;3.22;;;9.70;99.90;;;;;;4161008;28;20120;-50
2021/11/23 04:21:16;;;;;;;2.67;2.50;;;9.70;99.90;;;;;;4157719;28;20076;-51
2021/11/23 04:23:18;;;;;;;;;;;9.70;99.90;;;;;;4162612;28;20037;-52
2021/11/23 04:25:20;;;;;;;2.83;2.72;;;9.70;99.90;;;;;;4158880;28;20012;-51
2021/11/23 04:27:22;;;;;;;3.63;3.38;;;9.70;99.90;;;;;;4149280;28;20066;-49
2021/11/23 04:29:24;;;;;;;2.95;2.85;;;9.70;99.90;;;;;;4156465;28;20065;-52
2021/11/23 04:31:26;;;;;;;4.10;3.33;;;9.70;99.90;;;;;;4160544;28;20116;-50
2021/11/23 04:33:28;;;;;;;3.47;2.80;;;9.70;99.90;;;;;;4159531;28;20485;-52
2021/11/23 04:35:31;;;;;;;3.40;2.90;;;9.70;99.90;;;;;;4160990;28;20068;-51
2021/11/23 04:37:33;;;;;;;2.50;2.40;;;9.70;99.90;;;;;;4158841;28;20478;-51
2021/11/23 04:39:35;;;;;;;2.90;2.70;;;9.70;99.90;;;;;;4160945;28;20037;-51
2021/11/23 04:41:41;;;;;;;3.38;2.50;;;9.70;99.90;;;;;;4157486;28;20408;-51
2021/11/23 04:43:44;;;;;;;2.50;2.40;;;9.70;99.90;;;;;;4160214;28;20045;-49
2021/11/23 04:45:45;;;;;;;3.17;2.97;;;9.70;99.90;;;;;;4153929;28;20041;-50
2021/11/23 04:47:47;;;;;;;2.28;2.17;;;9.70;99.90;;;;;;4157761;28;20037;-50
2021/11/23 04:49:49;;;;;;;4.88;2.55;;;9.70;99.90;;;;;;4157827;28;20061;-51
2021/11/23 04:51:52;;;;;;;2.53;2.53;;;9.70;99.90;;;;;;4160158;28;20176;-51
2021/11/23 04:53:54;;;;;;;2.20;2.20;;;9.70;99.90;;;;;;4158999;28;20118;-51
2021/11/23 04:55:56;;;;;;;4.03;2.50;;;9.60;99.90;;;;;;4157398;28;20130;-51
2021/11/23 04:57:58;;;;;;;2.20;2.10;;;9.60;99.90;;;;;;4151313;28;20125;-51
2021/11/23 05:00:01;;;;;;;2.47;2.38;;;9.60;99.90;;;;;;4158273;28;20553;-49
2021/11/23 05:02:03;;;;;;;5.93;2.83;;;9.60;99.90;;;;;;4157947;28;20056;-52
2021/11/23 05:04:06;;;;;;;2.45;2.10;;;9.60;99.90;;;;;;4164611;28;20156;-52
2021/11/23 05:06:08;;;;;;;3.22;2.92;;;9.50;99.90;;;;;;4162455;28;20057;-52
2021/11/23 05:08:10;;;;;;;4.78;2.50;;;9.50;99.90;;;;;;4163685;28;20042;-51
2021/11/23 05:10:14;;;;;;;6.32;2.30;;;9.50;99.90;;;;;;4162604;28;20061;-51
2021/11/23 05:12:16;;;;;;;2.90;1.95;;;9.50;99.90;;;;;;4163861;28;20076;-53
2021/11/23 05:14:18;;;;;;;3.55;3.35;;;9.50;99.90;;;;;;4157330;28;20057;-51
2021/11/23 05:16:20;;;;;;;2.97;2.53;;;9.50;99.90;;;;;;4163782;28;20558;-52
2021/11/23 05:18:23;;;;;;;5.63;2.53;;;9.50;99.90;;;;;;4160462;28;20069;-52
2021/11/23 05:20:25;;;;;;;2.47;2.33;;;9.50;99.90;;;;;;4158721;28;20466;-51
2021/11/23 05:22:27;;;;;;;3.13;2.15;;;9.50;99.90;;;;;;4150300;28;20037;-53
2021/11/23 05:24:29;;;;;;;3.90;2.10;;;9.50;99.90;;;;;;4159775;28;20045;-52
2021/11/23 05:26:32;;;;;;;2.60;2.40;;;9.50;99.90;;;;;;4158970;28;20878;-52
2021/11/23 05:28:34;;;;;;;3.20;2.90;;;9.50;99.90;;;;;;4162532;28;20041;-52
2021/11/23 05:30:36;;;;;;;2.00;1.90;;;9.50;99.90;;;;;;4163262;28;20632;-52
2021/11/23 05:32:40;;;;;;;2.42;2.22;;;9.50;99.90;;;;;;4161853;28;20136;-52
2021/11/23 05:34:42;;;;;;;2.50;2.30;;;9.50;99.90;;;;;;4162997;28;20152;-51
2021/11/23 05:36:46;;;;;;;2.83;2.10;;;9.50;99.90;;;;;;4161976;28;20066;-51
2021/11/23 05:38:48;;;;;;;2.33;2.22;;;9.60;99.90;;;;;;4163793;28;20069;-52
2021/11/23 05:40:50;;;;;;;4.97;2.50;;;9.60;99.90;;;;;;4162415;28;20390;-52
2021/11/23 05:42:52;;;;;;;3.05;2.85;;;9.50;99.90;;;;;;4164117;28;20080;-52
2021/11/23 05:44:54;;;;;;;3.70;2.03;;;9.50;99.90;;;;;;4162820;28;20037;-50
2021/11/23 05:46:56;;;;;;;2.22;2.05;;;9.50;99.90;;;;;;4159491;28;20145;-52
2021/11/23 05:48:58;;;;;;;2.25;2.10;;;9.50;99.90;;;;;;4161531;28;20064;-50
2021/11/23 05:51:05;;;;;;;2.17;2.15;;;9.50;99.90;;;;;;4164500;28;20071;-52
2021/11/23 05:53:08;;;;;;;1.80;1.70;;;9.50;99.90;;;;;;4163448;28;20042;-52
2021/11/23 05:55:10;;;;;;;2.10;1.92;;;9.60;99.90;;;;;;4164663;28;20072;-50
2021/11/23 05:57:13;;;;;;;2.08;1.98;;;9.60;99.90;;;;;;4162987;28;20049;-52
2021/11/23 05:59:16;;;;;;;2.08;1.98;;;9.60;99.90;;;;;;4164250;28;20122;-52
2021/11/23 06:01:18;;;;;;;1.67;1.58;;;9.50;99.90;;;;;;4159236;28;20057;-52
2021/11/23 06:03:21;;;;;;;2.65;2.45;;;9.50;99.90;;;;;;4148520;28;20042;-51
2021/11/23 06:05:23;;;;;;;1.70;1.60;;;9.50;99.90;;;;;;4158767;28;20508;-51
2021/11/23 06:07:25;;;;;;;3.03;2.30;;;9.50;99.90;;;;;;4164887;28;20065;-52
2021/11/23 06:09:27;;;;;;;1.75;1.65;;;9.60;99.90;;;;;;4160665;28;20572;-50
2021/11/23 06:11:29;;;;;;;2.60;1.92;;;9.60;99.90;;;;;;4163354;28;20068;-52
2021/11/23 06:13:31;;;;;;;1.90;1.80;;;9.60;99.90;;;;;;4160231;28;20061;-53
2021/11/23 06:15:33;;;;;;;2.25;2.00;;;9.60;99.90;;;;;;4164320;28;20462;-53
2021/11/23 06:17:35;;;;;;;3.45;2.25;;;9.60;99.90;;;;;;4159949;28;20037;-50
2021/11/23 06:19:38;;;;;;;2.70;2.60;;;9.60;99.90;;;;;;4161160;28;20095;-52
2021/11/23 06:21:41;;;;;;;2.30;2.10;;;9.60;99.90;;;;;;4161675;28;20046;-49
2021/11/23 06:23:43;;;;;;;2.05;1.95;;;9.60;99.90;;;;;;4148440;28;20092;-45
2021/11/23 06:25:47;;;;;;;2.20;2.10;;;9.60;99.90;;;;;;4157507;28;20076;-49
2021/11/23 06:27:49;;;;;;;6.10;2.05;;;9.60;99.90;;;;;;4163210;28;20045;-46
2021/11/23 06:29:51;;;;;;;4.75;2.88;;;9.60;99.90;;;;;;4161294;28;20072;-47
2021/11/23 06:31:53;;;;;;;1.60;1.60;;;9.60;99.90;;;;;;4156652;28;20044;-48
2021/11/23 06:33:55;;;;;;;3.00;1.50;;;9.50;99.90;;;;;;4159188;28;20036;-46
2021/11/23 06:35:57;;;;;;;2.05;1.98;;;9.50;99.90;;;;;;4164184;28;20515;-47
2021/11/23 06:37:59;;;;;;;3.03;2.83;;;9.50;99.90;;;;;;4161386;28;20121;-47
2021/11/23 06:40:02;;;;;;;2.28;2.17;;;9.50;99.90;;;;;;4163426;28;20513;-47
2021/11/23 06:42:04;;;;;;;2.45;1.63;;;9.50;99.90;;;;;;4159477;28;20470;-47
2021/11/23 06:44:07;;;;;;;2.72;1.90;;;9.50;99.90;;;;;;4163434;28;20043;-46
2021/11/23 06:46:10;;;;;;;2.75;2.47;;;9.50;99.90;;;;;;4159481;28;20175;-46
2021/11/23 06:48:12;;;;;;;2.03;1.90;;;9.50;99.90;;;;;;4163318;28;20069;-45
2021/11/23 06:50:14;;;;;;;2.28;2.17;;;9.50;99.90;;;;;;4158458;28;20072;-45
2021/11/23 06:52:16;;;;;;;3.70;2.10;;;9.50;99.90;;;;;;4163746;28;20079;-45
2021/11/23 06:54:18;;;;;;;2.20;2.10;;;9.50;99.90;;;;;;4160128;28;20045;-47
2021/11/23 06:56:21;;;;;;;2.08;1.98;;;9.40;99.90;;;;;;4163187;28;20068;-46
2021/11/23 06:58:23;;;;;;;3.90;2.38;;;9.40;99.90;;;;;;4154182;28;20076;-47
2021/11/23 07:00:26;;;;;;;4.28;2.30;;;9.40;99.90;;;;;;4162571;28;20473;-46
2021/11/23 07:02:28;;;;;;;2.05;2.03;;;9.40;99.90;;;;;;4160791;28;20069;-46
2021/11/23 07:04:30;;;;;;;4.95;2.30;;;9.40;99.90;;;;;;4162072;28;20043;-46
2021/11/23 07:06:32;;;;;;;2.60;2.50;;;9.40;99.90;;;;;;4161519;28;20543;-46
2021/11/23 07:08:35;;;;;;;2.35;2.25;;;9.40;99.90;;;;;;4162649;28;20041;-46
2021/11/23 07:10:38;;;;;;;1.98;1.83;;;9.40;99.90;;;;;;4161830;28;20096;-47
2021/11/23 07:12:42;;;;;;;2.08;1.77;;;9.50;99.90;;;;;;4163101;28;20042;-46
2021/11/23 07:14:44;;;;;;;2.15;2.05;;;9.50;99.90;;;;;;4162652;28;20044;-46
2021/11/23 07:16:46;;;;;;;2.78;2.60;;;9.50;99.90;;;;;;4162616;28;20044;-47
2021/11/23 07:18:48;;;;;;;2.67;2.58;;;9.40;99.90;;;;;;4159267;28;20104;-47
2021/11/23 07:20:51;;;;;;;2.83;2.13;;;9.50;99.90;;;;;;4162962;28;20045;-46
2021/11/23 07:22:53;;;;;;;2.05;2.05;;;9.50;99.90;;;;;;4160760;28;20481;-45
2021/11/23 07:24:55;;;;;;;3.15;2.47;;;9.50;99.90;;;;;;4162347;28;20131;-47
2021/11/23 07:26:57;;;;;;;2.50;2.40;;;9.40;99.90;;;;;;4162009;28;20129;-46
2021/11/23 07:29:00;;;;;;;2.33;2.13;;;9.40;99.90;;;;;;4161367;28;20069;-47
2021/11/23 07:31:02;;;;;;;2.45;2.20;;;9.40;99.90;;;;;;4149814;28;20426;-46
2021/11/23 07:33:04;;;;;;;3.15;2.38;;;9.40;99.90;;;;;;4165359;28;20545;-47
2021/11/23 07:35:07;;;;;;;2.70;2.40;;;9.50;99.90;;;;;;4168042;28;20061;-47
2021/11/23 07:37:09;;;;;;;2.72;2.35;;;9.50;99.90;;;;;;4161394;28;20519;-46
2021/11/23 07:39:11;;;;;;;2.47;2.10;;;9.60;99.90;;;;;;4163052;28;20061;-45
2021/11/23 07:41:14;;;;;;;2.90;2.63;;;9.60;99.90;;;;;;4159163;28;20099;-47
2021/11/23 07:43:15;;;;;;;4.82;2.33;;;9.60;99.90;;;;;;4161844;28;20072;-45
2021/11/23 07:45:18;;;;;;;6.70;1.73;;;9.60;99.90;;;;;;4160840;28;20052;-45
2021/11/23 07:47:20;;;;;;;2.00;1.98;;;9.60;99.90;;;;;;4162169;28;20048;-46
2021/11/23 07:49:22;;;;;;;2.00;1.90;;;9.60;99.90;;;;;;4160838;28;20041;-46
2021/11/23 07:51:24;;;;;;;1.75;1.75;;;9.60;99.90;;;;;;4162748;28;20080;-46
2021/11/23 07:53:26;;;;;;;2.22;2.20;;;9.50;99.90;;;;;;4159599;28;20044;-46
2021/11/23 07:55:28;;;;;;;2.30;2.10;;;9.60;99.90;;;;;;4148001;28;20287;-47
2021/11/23 07:57:32;;;;;;;2.75;2.65;;;9.60;99.90;;;;;;4158488;28;20044;-47
2021/11/23 07:59:35;;;;;;;3.30;2.10;;;9.60;99.90;;;;;;4162673;28;20126;-47
2021/11/23 08:01:38;;;;;;;2.08;1.90;;;9.60;99.90;;;;;;4157511;28;20124;-45
2021/11/23 08:03:41;;;;;;;2.30;2.10;;;9.60;99.90;;;;;;4162014;28;20045;-45
2021/11/23 08:05:43;;;;;;;2.03;1.92;;;9.60;99.90;;;;;;4159843;28;20381;-45
2021/11/23 08:07:45;;;;;;;3.00;2.38;;;9.60;99.90;;;;;;4162958;28;20612;-46
2021/11/23 08:09:49;;;;;;;2.50;2.05;;;9.60;99.90;;;;;;4159753;28;20099;-47
2021/11/23 08:11:51;;;;;;;2.65;2.55;;;9.60;99.90;;;;;;4161684;28;20069;-47
2021/11/23 08:13:54;;;;;;;3.38;3.13;;;9.60;99.90;;;;;;4158894;28;20034;-46
2021/11/23 08:15:56;;;;;;;2.60;2.60;;;9.70;99.90;;;;;;4162405;28;20037;-50
2021/11/23 08:17:58;;;;;;;3.45;2.00;;;9.70;99.90;;;;;;4159612;28;20393;-47
2021/11/23 08:20:00;;;;;;;3.97;2.30;;;9.70;99.90;;;;;;4162194;28;20124;-46
2021/11/23 08:22:02;;;;;;;2.42;2.33;;;9.70;99.90;;;;;;4160331;28;20072;-47
2021/11/23 08:24:05;;;;;;;3.20;1.70;;;9.60;99.90;;;;;;4161741;28;20076;-46
2021/11/23 08:26:07;;;;;;;4.30;2.42;;;9.70;99.90;;;;;;4158492;28;20041;-46
2021/11/23 08:28:09;;;;;;;2.95;1.60;;;9.70;99.90;;;;;;4158563;28;20137;-47
2021/11/23 08:30:12;;;;;;;3.03;2.83;;;9.70;99.90;;;;;;4158994;28;20052;-45
2021/11/23 08:32:14;;;;;;;2.03;1.83;;;9.70;99.90;;;;;;4162126;28;20141;-47
2021/11/23 08:34:17;;;;;;;2.85;2.47;;;9.70;99.90;;;;;;4158807;28;20036;-45
2021/11/23 08:36:19;;;;;;;1.95;1.80;;;9.70;99.90;;;;;;4161703;28;20049;-47
2021/11/23 08:38:21;;;;;;;3.80;2.20;;;9.70;99.90;;;;;;4158748;28;20045;-45
2021/11/23 08:40:24;;;;;;;2.28;2.10;;;9.70;99.90;;;;;;4155982;28;20088;-49
2021/11/23 08:42:27;;;;;;;1.88;1.77;;;9.70;99.90;;;;;;4155209;28;20132;-47
2021/11/23 08:44:29;;;;;;;1.75;1.65;;;9.70;99.90;;;;;;4160523;28;20061;-46
2021/11/23 08:46:31;;;;;;;2.08;1.77;;;9.70;99.90;;;;;;4159014;28;20037;-47
2021/11/23 08:48:35;;;;;;;1.60;1.50;;;9.70;99.90;;;;;;4161739;28;20033;-46
2021/11/23 08:50:37;;;;;;;1.70;1.60;;;9.70;99.90;;;;;;4158817;28;20033;-46
2021/11/23 08:52:39;;;;;;;1.73;1.73;;;9.70;99.90;;;;;;4162385;28;20051;-46
2021/11/23 08:54:42;;;;;;;4.57;1.67;;;9.70;99.90;;;;;;4157573;28;20141;-48
2021/11/23 08:56:52;;;;;;;1.80;1.70;;;9.70;99.90;;;;;;4159750;28;20164;-45
2021/11/23 08:58:54;;;;;;;3.80;1.83;;;9.70;99.90;;;;;;4158887;28;20072;-45
2021/11/23 09:00:57;;;;;;;2.72;1.77;;;9.70;99.90;;;;;;4160257;28;20041;-46
2021/11/23 09:03:00;;;;;;;2.55;1.83;;;9.70;99.90;;;;;;4158764;28;20456;-45
2021/11/23 09:05:03;;;;;;;3.38;2.47;;;9.70;99.90;;;;;;4160706;28;20045;-46
2021/11/23 09:07:07;;;;;;;1.95;1.77;;;9.70;99.90;;;;;;4157776;28;20529;-47
2021/11/23 09:09:10;;;;;;;2.10;1.70;;;9.70;99.90;;;;;;4159952;28;20088;-46
2021/11/23 09:11:12;;;;;;;2.65;2.38;;;9.70;99.90;;;;;;4158850;28;20068;-46
2021/11/23 09:13:14;;;;;;;4.32;2.00;;;9.70;99.90;;;;;;4160523;28;20068;-46
2021/11/23 09:15:17;;;;;;;2.38;2.25;;;9.70;99.90;;;;;;4158523;28;20370;-47
2021/11/23 09:17:19;;;;;;;2.97;2.80;;;9.60;99.90;;;;;;4160687;28;20568;-45
2021/11/23 09:19:21;;;;;;;1.58;1.58;;;9.70;99.90;;;;;;4159793;28;20122;-46
2021/11/23 09:21:26;;;;;;;1.80;1.70;;;9.70;99.90;;;;;;4160645;28;20132;-47
2021/11/23 09:23:29;;;;;;;1.92;1.70;;;9.70;99.90;;;;;;4159614;28;20582;-46
2021/11/23 09:25:31;;;;;;;2.38;2.17;;;9.70;99.90;;;;;;4159249;28;20124;-45
2021/11/23 09:27:33;;;;;;;;;;;9.70;99.90;;;;;;4151541;28;20041;-46
2021/11/23 09:29:36;;;;;;;3.03;2.90;;;9.70;99.90;;;;;;4160956;28;19931;-46
2021/11/23 09:31:38;;;;;;;4.45;3.10;;;9.70;99.90;;;;;;4159200;28;20038;-46
2021/11/23 09:33:40;;;;;;;3.65;3.33;;;9.70;99.90;;;;;;4160473;28;20559;-46
2021/11/23 09:35:42;;;;;;;1.95;1.90;;;9.80;99.90;;;;;;4159863;28;20037;-47
2021/11/23 09:37:44;;;;;;;2.03;1.90;;;9.80;99.90;;;;;;4160402;28;20091;-47
2021/11/23 09:39:46;;;;;;;3.08;2.92;;;9.70;99.90;;;;;;4160330;28;20116;-48
2021/11/23 09:41:48;;;;;;;2.95;2.75;;;9.70;99.90;;;;;;4158947;28;20166;-46
2021/11/23 09:43:51;;;;;;;3.28;2.40;;;9.70;99.90;;;;;;4160208;28;20068;-45
2021/11/23 09:45:53;;;;;;;2.33;2.25;;;9.70;99.90;;;;;;4160660;28;20033;-46
2021/11/23 09:47:55;;;;;;;2.42;2.33;;;9.70;99.90;;;;;;4163963;28;20076;-46
2021/11/23 09:49:58;;;;;;;2.83;2.72;;;9.70;99.90;;;;;;4163041;28;20057;-46
2021/11/23 09:52:00;;;;;;;2.75;2.58;;;9.80;99.90;;;;;;4159660;28;20453;-45
2021/11/23 09:54:06;;;;;;;2.85;2.10;;;9.70;99.90;;;;;;4163043;28;20084;-46
2021/11/23 09:56:08;;;;;;;2.08;1.98;;;9.70;99.90;;;;;;4149230;28;20129;-46
2021/11/23 09:58:11;;;;;;;2.25;2.15;;;9.70;99.90;;;;;;4162922;28;20084;-47
2021/11/23 10:00:27;;;;;;;3.88;2.10;;;9.70;99.90;;;;;;4162925;28;20045;-46
2021/11/23 10:02:31;;;;;;;2.42;2.25;;;9.70;99.90;;;;;;4162010;28;20041;-47
2021/11/23 10:04:37;;;;;;;3.60;1.80;;;9.70;99.90;;;;;;4162625;28;20046;-47
2021/11/23 10:06:59;;;;;;;3.03;2.83;;;9.70;99.90;;;;;;4161906;28;20050;-46
2021/11/23 10:09:01;;;;;;;2.65;2.03;;;9.70;99.90;;;;;;4163253;28;20496;-48
2021/11/23 10:11:04;;;;;;;2.75;2.25;;;9.70;99.90;;;;;;4163392;28;20051;-47
2021/11/23 10:13:06;;;;;;;2.63;1.83;;;9.70;99.90;;;;;;4162467;28;20120;-47
2021/11/23 10:15:13;;;;;;;2.10;1.92;;;9.70;99.90;;;;;;4162754;28;20061;-46
2021/11/23 10:17:26;;;;;;;2.70;2.60;;;9.70;99.90;;;;;;4163915;28;20049;-46
2021/11/23 10:19:37;;;;;;;2.17;2.17;;;9.70;99.90;;;;;;4162310;28;20037;-45
2021/11/23 10:21:49;;;;;;;2.28;2.17;;;9.80;99.90;;;;;;4152771;28;20072;-47
2021/11/23 10:23:55;;;;;;;3.00;2.75;;;9.70;99.90;;;;;;4162903;28;20377;-50
2021/11/23 10:26:03;;;;;;;2.15;2.05;;;9.70;99.90;;;;;;4162616;28;20041;-49
2021/11/23 10:28:06;;;;;;;2.97;2.78;;;9.70;99.90;;;;;;4163998;28;20128;-47
2021/11/23 10:30:08;;;;;;;3.13;2.53;;;9.80;99.90;;;;;;4161179;28;20065;-49
2021/11/23 10:32:14;;;;;;;3.20;2.72;;;9.80;99.90;;;;;;4162862;28;20045;-50
2021/11/23 10:34:18;;;;;;;3.28;2.67;;;9.80;99.90;;;;;;4161013;28;20053;-49
2021/11/23 10:36:20;;;;;;;3.30;3.10;;;9.70;99.90;;;;;;4162127;28;20029;-47
2021/11/23 10:38:24;;;;;;;2.90;2.80;;;9.70;99.90;;;;;;4160318;28;21282;-50
2021/11/23 10:40:28;;;;;;;3.35;3.25;;;9.70;99.90;;;;;;4157568;28;20034;-50
2021/11/23 10:42:33;;;;;;;3.08;2.97;;;9.80;99.90;;;;;;4161697;28;20087;-50
2021/11/23 10:44:36;;;;;;;3.40;3.30;;;9.80;99.90;;;;;;4160222;28;20095;-47
2021/11/23 10:46:53;;;;;;;2.72;2.63;;;9.80;99.90;;;;;;4160111;28;20054;-50